Modi R — OWZF2 — position and weather

sailwx.info

Track history (hours):
 
Tides and Currents Weather Stations Pressure Air Temp Water Temp Dewpoint Dewpoint Depression Visibility Wind Speed Wind Dir Waves Ship Positions

Modi R

Last reported at 2018-Jul-21 17:00 UTC. Time now 2018-Jul-21 17:24 UTC.
Position S 32°06' E 115°40'.

Length 64 m; draft 3 m.

Type: Dredging. MMSI: 219963000.

Date/timePositionNaut miles runAvg speedWind from/ knotsBaromVisibWave heightAir tempDewpointWater temp
2018-Jul-21 17:00S 32°06' E 115°40'0 0.7
2018-Jul-21 16:30S 32°06' E 115°40'2 4.8
2018-Jul-21 16:00S 32°07' E 115°43'2 3.1
2018-Jul-21 15:30S 32°08' E 115°45'3 6.5
2018-Jul-21 15:00S 32°06' E 115°41'0 0.9
2018-Jul-21 14:30S 32°06' E 115°41'0 0.2
2018-Jul-21 13:30S 32°06' E 115°40'0 0.5
2018-Jul-21 13:00S 32°06' E 115°40'0 0.9
2018-Jul-21 12:30S 32°06' E 115°41'3 6.0
2018-Jul-21 12:00S 32°07' E 115°44'0 0.1
2018-Jul-21 11:30S 32°07' E 115°44'3 5.8
2018-Jul-21 10:59S 32°06' E 115°41'1 1.4
2018-Jul-21 10:30S 32°05' E 115°41'0 0.3
2018-Jul-21 10:00S 32°05' E 115°41'1 2.8
2018-Jul-21 09:30S 32°06' E 115°42'3 5.8
2018-Jul-21 09:00S 32°08' E 115°45'2 4.1
2018-Jul-21 08:30S 32°07' E 115°43'3 5.8
2018-Jul-21 07:57S 32°05' E 115°40'0 0.1
2018-Jul-21 07:30S 32°05' E 115°40'0 0.0
2018-Jul-21 07:00S 32°05' E 115°40'2 3.2
2018-Jul-21 06:30S 32°06' E 115°41'3 6.6
2018-Jul-21 06:00S 32°08' E 115°44'1 2.0
2018-Jul-21 05:30S 32°07' E 115°43'3 5.4
2018-Jul-21 05:00S 32°06' E 115°40'0 0.1
2018-Jul-21 04:30S 32°06' E 115°40'0 0.2
2018-Jul-21 04:00S 32°06' E 115°40'2 4.7
2018-Jul-21 03:30S 32°07' E 115°43'2 3.2
2018-Jul-21 03:00S 32°08' E 115°45'3 6.4
2018-Jul-21 02:30S 32°06' E 115°41'1 1.3
2018-Jul-21 02:00S 32°06' E 115°40'0 0.5
2018-Jul-21 01:30S 32°06' E 115°40'1 1.5
2018-Jul-21 01:00S 32°06' E 115°41'3 5.8
2018-Jul-21 00:30S 32°07' E 115°44'1 1.2
2018-Jul-21 00:00S 32°07' E 115°44'3 5.8
2018-Jul-20 23:30S 32°05' E 115°41'1 1.0
2018-Jul-20 22:58S 32°05' E 115°41'0 0.5
2018-Jul-20 22:30S 32°05' E 115°41'2 3.4
2018-Jul-20 22:00S 32°06' E 115°42'3 5.1
2018-Jul-20 21:30S 32°08' E 115°45'2 3.8
2018-Jul-20 21:00S 32°07' E 115°43'4 5.9
2018-Jul-20 20:25S 32°05' E 115°40'0 0.5
2018-Jul-20 20:00S 32°05' E 115°40'0 0.4
2018-Jul-20 19:30S 32°05' E 115°40'1 2.2
2018-Jul-20 19:01S 32°05' E 115°41'3 6.3
2018-Jul-20 18:30S 32°07' E 115°44'0 0.4
2018-Jul-20 18:00S 32°07' E 115°44'3 6.1
2018-Jul-20 17:30S 32°06' E 115°40'0 0.5
2018-Jul-20 17:00S 32°06' E 115°40'0 0.6
2018-Jul-20 16:30S 32°06' E 115°40'2 5.0
2018-Jul-20 16:00S 32°07' E 115°43'1 2.5
2018-Jul-20 15:30S 32°08' E 115°44'3 5.9
2018-Jul-20 15:00S 32°06' E 115°41'1 1.7
2018-Jul-20 14:30S 32°06' E 115°40'0 0.2
2018-Jul-20 14:00S 32°06' E 115°40'1 2.0
2018-Jul-20 13:28S 32°06' E 115°42'3 6.5
2018-Jul-20 13:00S 32°08' E 115°45'2 3.8
2018-Jul-20 12:30S 32°07' E 115°43'2 4.5
2018-Jul-20 12:00S 32°05' E 115°41'0 0.5
2018-Jul-20 11:30S 32°05' E 115°41'0 0.5
2018-Jul-20 11:00S 32°05' E 115°41'3 6.3
2018-Jul-20 10:30S 32°07' E 115°44'0 0.2
2018-Jul-20 10:00S 32°07' E 115°44'3 6.0
2018-Jul-20 09:30S 32°05' E 115°41'1 2.4
2018-Jul-20 09:00S 32°05' E 115°40'0 0.2
2018-Jul-20 08:30S 32°05' E 115°40'1 1.9
2018-Jul-20 08:00S 32°05' E 115°41'3 6.3
2018-Jul-20 07:30S 32°07' E 115°44'1 1.4
2018-Jul-20 07:00S 32°07' E 115°44'3 5.9
2018-Jul-20 06:26S 32°06' E 115°40'0 0.6
2018-Jul-20 06:00S 32°06' E 115°40'0 0.5
2018-Jul-20 05:30S 32°06' E 115°40'2 3.9
2018-Jul-20 05:00S 32°07' E 115°43'2 4.1
2018-Jul-20 04:30S 32°08' E 115°45'0 0.6
2018-Jul-20 03:58S 32°07' E 115°44'0 0.0
2018-Jul-20 03:28S 32°07' E 115°44'0 0.0
2018-Jul-20 02:55S 32°07' E 115°44'0 0.1
2018-Jul-20 02:28S 32°07' E 115°44'0 0.0
2018-Jul-20 01:58S 32°07' E 115°44'0 0.0
2018-Jul-20 01:25S 32°07' E 115°44'0 0.0
2018-Jul-20 00:58S 32°07' E 115°44'0 0.0
2018-Jul-20 00:28S 32°07' E 115°44'0 0.0
2018-Jul-20 00:00S 32°07' E 115°44'0 0.0
2018-Jul-19 23:30S 32°07' E 115°44'0 0.0
2018-Jul-19 22:57S 32°08' E 115°44'0 0.0
2018-Jul-19 22:24S 32°07' E 115°44'0 0.0
2018-Jul-19 22:00S 32°07' E 115°44'0 0.0
2018-Jul-19 21:27S 32°07' E 115°44'0 0.0
2018-Jul-19 21:00S 32°07' E 115°44'0 0.0
2018-Jul-19 20:27S 32°08' E 115°44'0 0.0
2018-Jul-19 20:00S 32°07' E 115°44'0 0.0
2018-Jul-19 19:30S 32°07' E 115°44'0 0.0
2018-Jul-19 19:00S 32°07' E 115°44'0 0.0
2018-Jul-19 18:30S 32°07' E 115°44'0 0.0
2018-Jul-19 17:57S 32°07' E 115°44'0 0.0
2018-Jul-19 17:30S 32°07' E 115°44'0 0.0
2018-Jul-19 15:12S 32°07' E 115°44'0 0.1
2018-Jul-19 15:00S 32°07' E 115°44'0 0.0
2018-Jul-19 14:00S 32°07' E 115°44'0 0.0
2018-Jul-19 13:30S 32°07' E 115°44'0 0.0
2018-Jul-19 13:00S 32°07' E 115°44'0 0.0
2018-Jul-19 12:30S 32°07' E 115°44'0 0.1
2018-Jul-19 12:00S 32°07' E 115°44'0 0.1
2018-Jul-19 11:27S 32°07' E 115°44'0 0.0
2018-Jul-19 11:00S 32°07' E 115°44'0 0.3
2018-Jul-19 10:30S 32°08' E 115°44'1 2.1
2018-Jul-19 10:00S 32°07' E 115°43'3 5.1
2018-Jul-19 09:30S 32°06' E 115°40'0 0.4
2018-Jul-19 08:59S 32°06' E 115°40'0 0.3
2018-Jul-19 08:30S 32°06' E 115°40'3 6.7
2018-Jul-19 08:00S 32°07' E 115°44'1 1.5
2018-Jul-19 07:30S 32°07' E 115°43'3 5.6
2018-Jul-19 07:00S 32°05' E 115°41'0 0.1
2018-Jul-19 06:30S 32°05' E 115°41'0 0.1
2018-Jul-19 06:00S 32°05' E 115°41'2 3.0
2018-Jul-19 05:30S 32°06' E 115°42'3 5.8
2018-Jul-19 05:00S 32°08' E 115°45'3 5.1
2018-Jul-19 04:30S 32°06' E 115°42'3 5.4
2018-Jul-19 03:59S 32°05' E 115°40'0 0.5
2018-Jul-19 03:29S 32°05' E 115°40'0 0.5
2018-Jul-19 02:59S 32°05' E 115°40'0 0.5
2018-Jul-19 02:30S 32°05' E 115°40'2 3.7
2018-Jul-19 02:00S 32°06' E 115°41'4 7.0
2018-Jul-19 01:30S 32°08' E 115°45'2 4.4
2018-Jul-19 01:00S 32°07' E 115°43'2 3.9
2018-Jul-19 00:30S 32°07' E 115°40'0 0.2
2018-Jul-19 00:00S 32°06' E 115°40'0 0.3
2018-Jul-18 23:30S 32°07' E 115°40'3 6.3
2018-Jul-18 23:00S 32°07' E 115°44'0 0.0
2018-Jul-18 22:30S 32°07' E 115°44'3 6.2
2018-Jul-18 22:00S 32°06' E 115°41'0 0.5
2018-Jul-18 21:30S 32°06' E 115°40'0 0.5
2018-Jul-18 21:00S 32°06' E 115°41'3 6.6
2018-Jul-18 20:30S 32°07' E 115°44'1 1.1
2018-Jul-18 20:00S 32°07' E 115°44'3 5.9
2018-Jul-18 19:30S 32°05' E 115°41'0 0.3
2018-Jul-18 19:00S 32°05' E 115°41'0 0.6
2018-Jul-18 18:30S 32°05' E 115°41'4 7.2
2018-Jul-18 18:00S 32°07' E 115°44'0 0.6
2018-Jul-18 17:30S 32°07' E 115°44'4 6.4
2018-Jul-18 16:57S 32°05' E 115°41'1 1.9
2018-Jul-18 16:30S 32°05' E 115°40'0 0.2
2018-Jul-18 15:59S 32°05' E 115°40'0 0.5
2018-Jul-18 15:30S 32°05' E 115°40'0 0.8
2018-Jul-18 14:59S 32°05' E 115°39'1 2.3
2018-Jul-18 14:30S 32°05' E 115°41'4 3.6
2018-Jul-18 13:30S 32°07' E 115°44'3 5.9
2018-Jul-18 13:00S 32°06' E 115°41'0 0.7
2018-Jul-18 12:30S 32°07' E 115°40'0 0.3
2018-Jul-18 11:59S 32°07' E 115°40'1 2.7
2018-Jul-18 11:30S 32°06' E 115°42'3 2.5
2018-Jul-18 10:18S 32°08' E 115°45'0 0.0
2018-Jul-18 09:57S 32°08' E 115°45'0 0.0
2018-Jul-18 09:21S 32°08' E 115°45'0 0.0
2018-Jul-18 08:57S 32°08' E 115°45'0 0.0
2018-Jul-18 08:27S 32°08' E 115°45'0 0.0
2018-Jul-18 08:00S 32°08' E 115°45'0 0.0
2018-Jul-18 07:26S 32°08' E 115°45'0 0.0
2018-Jul-18 06:56S 32°08' E 115°45'0 0.0
2018-Jul-18 06:29S 32°08' E 115°45'0 0.0
2018-Jul-18 05:59S 32°08' E 115°45'0 0.0
2018-Jul-18 05:29S 32°08' E 115°45'0 0.0
2018-Jul-18 04:56S 32°08' E 115°45'0 0.0
2018-Jul-18 04:29S 32°08' E 115°45'0 0.0
2018-Jul-18 03:56S 32°08' E 115°45'0 0.0
2018-Jul-18 03:28S 32°08' E 115°45'0 0.0
2018-Jul-18 02:55S 32°08' E 115°45'0 0.0
2018-Jul-18 01:31S 32°08' E 115°45'0 0.0
2018-Jul-18 01:25S 32°08' E 115°45'0 0.0
2018-Jul-18 00:55S 32°08' E 115°45'0 0.0
2018-Jul-18 00:22S 32°08' E 115°45'0 0.0
2018-Jul-18 00:00S 32°08' E 115°45'2 3.1
2018-Jul-17 23:31S 32°07' E 115°43'3 5.3
2018-Jul-17 23:00S 32°06' E 115°40'0 0.1
2018-Jul-17 22:30S 32°06' E 115°40'0 0.2
2018-Jul-17 22:01S 32°06' E 115°40'0 0.1
2018-Jul-17 21:31S 32°06' E 115°41'0 0.0
2018-Jul-17 21:00S 32°06' E 115°41'0 0.9
2018-Jul-17 20:31S 32°06' E 115°41'3 6.3
2018-Jul-17 20:00S 32°08' E 115°44'1 2.0
2018-Jul-17 19:30S 32°07' E 115°43'3 5.8
2018-Jul-17 19:01S 32°05' E 115°41'0 0.0
2018-Jul-17 18:29S 32°05' E 115°41'0 0.4
2018-Jul-17 18:01S 32°05' E 115°41'1 3.0
2018-Jul-17 17:31S 32°06' E 115°42'3 6.0
2018-Jul-17 17:00S 32°08' E 115°45'2 4.4
2018-Jul-17 16:31S 32°07' E 115°43'3 5.8
2018-Jul-17 15:57S 32°05' E 115°40'0 0.2
2018-Jul-17 15:29S 32°05' E 115°40'0 0.1
2018-Jul-17 15:01S 32°05' E 115°40'0 0.5
2018-Jul-17 14:30S 32°05' E 115°40'3 5.4
2018-Jul-17 14:01S 32°06' E 115°42'3 5.0
2018-Jul-17 13:30S 32°08' E 115°45'3 5.6
2018-Jul-17 13:00S 32°07' E 115°42'2 3.1
2018-Jul-17 12:31S 32°07' E 115°40'0 0.3
2018-Jul-17 12:00S 32°07' E 115°40'0 0.2
2018-Jul-17 11:31S 32°06' E 115°40'3 5.2
2018-Jul-17 11:01S 32°07' E 115°43'1 1.7
2018-Jul-17 10:30S 32°07' E 115°44'0 0.2
2018-Jul-17 10:01S 32°07' E 115°44'0 0.0
2018-Jul-17 09:31S 32°07' E 115°44'0 0.0
2018-Jul-17 09:00S 32°07' E 115°44'1 1.3
2018-Jul-17 08:30S 32°07' E 115°44'3 5.2
2018-Jul-17 08:00S 32°06' E 115°41'0 0.3
2018-Jul-17 07:30S 32°06' E 115°41'0 0.1
2018-Jul-17 07:00S 32°06' E 115°41'0 0.4
2018-Jul-17 06:30S 32°06' E 115°40'0 0.5
2018-Jul-17 05:59S 32°06' E 115°41'1 1.1
2018-Jul-17 05:30S 32°06' E 115°41'0 0.4
2018-Jul-17 05:01S 32°06' E 115°41'2 4.3
2018-Jul-17 04:30S 32°07' E 115°43'1 2.9
2018-Jul-17 04:01S 32°08' E 115°45'3 6.2
2018-Jul-17 03:31S 32°06' E 115°42'1 1.9
2018-Jul-17 02:58S 32°05' E 115°41'0 0.1
2018-Jul-17 02:30S 32°05' E 115°41'0 0.2
2018-Jul-17 02:00S 32°05' E 115°41'3 6.0
2018-Jul-17 01:31S 32°07' E 115°44'0 0.9
2018-Jul-17 01:01S 32°07' E 115°44'3 6.0
2018-Jul-17 00:31S 32°06' E 115°41'2 1.5
2018-Jul-16 23:29S 32°05' E 115°40'0 0.9
2018-Jul-16 23:00S 32°05' E 115°40'3 5.9
2018-Jul-16 22:30S 32°07' E 115°43'2 3.9
2018-Jul-16 22:00S 32°08' E 115°45'3 5.9
2018-Jul-16 21:30S 32°07' E 115°42'1 2.4
2018-Jul-16 21:00S 32°06' E 115°40'0 0.4
2018-Jul-16 20:30S 32°06' E 115°40'0 0.2
2018-Jul-16 20:00S 32°07' E 115°40'1 2.7
2018-Jul-16 19:31S 32°07' E 115°42'3 5.6
2018-Jul-16 19:00S 32°08' E 115°45'2 4.5
2018-Jul-16 18:30S 32°07' E 115°43'2 3.2
2018-Jul-16 18:00S 32°06' E 115°41'0 0.5
2018-Jul-16 17:30S 32°06' E 115°41'0 0.2
2018-Jul-16 16:58S 32°06' E 115°41'0 0.1
2018-Jul-16 16:30S 32°06' E 115°41'0 0.5
2018-Jul-16 16:00S 32°06' E 115°41'0 0.3
2018-Jul-16 15:30S 32°06' E 115°41'0 0.3
2018-Jul-16 14:59S 32°06' E 115°41'1 2.3
2018-Jul-16 14:30S 32°06' E 115°42'3 5.4
2018-Jul-16 14:01S 32°08' E 115°45'3 5.0
2018-Jul-16 13:30S 32°06' E 115°42'2 3.9
2018-Jul-16 13:01S 32°05' E 115°41'0 0.8
2018-Jul-16 12:29S 32°05' E 115°41'0 0.6
2018-Jul-16 12:00S 32°05' E 115°41'0 0.3
2018-Jul-16 11:30S 32°05' E 115°41'0 0.7
2018-Jul-16 11:00S 32°05' E 115°41'3 6.0
2018-Jul-16 10:31S 32°07' E 115°44'0 0.8
2018-Jul-16 10:01S 32°07' E 115°44'3 6.1
2018-Jul-16 09:30S 32°06' E 115°41'2 3.4
2018-Jul-16 09:01S 32°05' E 115°40'0 0.1
2018-Jul-16 08:22S 32°05' E 115°40'0 0.3
2018-Jul-16 08:00S 32°05' E 115°40'2 4.5
2018-Jul-16 07:31S 32°06' E 115°42'3 6.2
2018-Jul-16 07:01S 32°08' E 115°45'2 3.6
2018-Jul-16 06:31S 32°07' E 115°43'2 4.8
2018-Jul-16 06:01S 32°06' E 115°40'0 0.5
2018-Jul-16 05:31S 32°07' E 115°40'0 0.4
2018-Jul-16 05:00S 32°07' E 115°40'1 2.6
2018-Jul-16 04:31S 32°07' E 115°42'3 5.8
2018-Jul-16 04:00S 32°08' E 115°45'1 1.2
2018-Jul-16 03:31S 32°07' E 115°44'3 6.2
2018-Jul-16 03:00S 32°06' E 115°41'0 0.2
2018-Jul-16 02:30S 32°06' E 115°41'0 0.3
2018-Jul-16 02:01S 32°06' E 115°41'0 0.0
2018-Jul-16 01:28S 32°06' E 115°41'0 0.5
2018-Jul-16 01:00S 32°06' E 115°41'0 0.9
2018-Jul-16 00:30S 32°06' E 115°40'0 0.6
2018-Jul-16 00:00S 32°06' E 115°41'0 0.1
2018-Jul-15 23:31S 32°06' E 115°41'0 0.4
2018-Jul-15 23:01S 32°06' E 115°41'1 1.3
2018-Jul-15 22:31S 32°06' E 115°41'3 6.3
2018-Jul-15 22:00S 32°08' E 115°45'1 1.7
2018-Jul-15 21:31S 32°07' E 115°44'3 5.7
2018-Jul-15 21:00S 32°05' E 115°41'0 0.7
2018-Jul-15 20:26S 32°05' E 115°41'0 0.1
2018-Jul-15 20:00S 32°05' E 115°41'0 0.1
2018-Jul-15 19:28S 32°05' E 115°41'0 0.4
2018-Jul-15 19:00S 32°05' E 115°41'3 5.7
2018-Jul-15 18:31S 32°07' E 115°43'1 2.5
2018-Jul-15 18:01S 32°08' E 115°45'3 6.0
2018-Jul-15 17:31S 32°06' E 115°42'2 3.9
2018-Jul-15 17:00S 32°05' E 115°40'0 0.6
2018-Jul-15 16:30S 32°05' E 115°39'0 0.7
2018-Jul-15 16:00S 32°05' E 115°40'3 5.3
2018-Jul-15 15:31S 32°06' E 115°42'3 5.3
2018-Jul-15 15:00S 32°08' E 115°45'3 5.5
2018-Jul-15 14:31S 32°07' E 115°42'2 3.2
2018-Jul-15 14:01S 32°06' E 115°40'0 0.3
2018-Jul-15 13:30S 32°07' E 115°40'0 0.1
2018-Jul-15 13:01S 32°07' E 115°40'3 5.3
2018-Jul-15 12:30S 32°07' E 115°44'1 2.1
2018-Jul-15 12:00S 32°08' E 115°45'3 6.2
2018-Jul-15 11:30S 32°06' E 115°41'0 1.0
2018-Jul-15 11:01S 32°06' E 115°41'0 0.3
2018-Jul-15 10:30S 32°06' E 115°41'0 0.1
2018-Jul-15 09:58S 32°06' E 115°41'0 0.5
2018-Jul-15 09:31S 32°06' E 115°40'0 0.4
2018-Jul-15 09:01S 32°06' E 115°41'0 0.4
2018-Jul-15 08:30S 32°06' E 115°41'0 0.8
2018-Jul-15 08:00S 32°06' E 115°40'1 1.3
2018-Jul-15 07:31S 32°06' E 115°41'3 6.5
2018-Jul-15 07:01S 32°08' E 115°45'1 2.8
2018-Jul-15 06:30S 32°07' E 115°43'2 4.8
2018-Jul-15 06:00S 32°05' E 115°41'0 0.1
2018-Jul-15 05:21S 32°05' E 115°41'0 0.4
2018-Jul-15 04:56S 32°05' E 115°41'0 0.8
2018-Jul-15 04:29S 32°05' E 115°41'2 5.2
2018-Jul-15 04:01S 32°07' E 115°43'1 2.4
2018-Jul-15 03:30S 32°08' E 115°45'3 6.1
2018-Jul-15 03:01S 32°06' E 115°42'2 4.0
2018-Jul-15 02:29S 32°05' E 115°40'0 0.0
2018-Jul-15 01:58S 32°05' E 115°40'0 0.6
2018-Jul-15 01:30S 32°05' E 115°40'0 0.6
2018-Jul-15 01:00S 32°05' E 115°40'1 2.5
2018-Jul-15 00:31S 32°05' E 115°41'3 6.4
2018-Jul-15 00:00S 32°07' E 115°44'0 0.1
2018-Jul-14 23:30S 32°07' E 115°44'3 6.0
2018-Jul-14 23:00S 32°06' E 115°40'0 0.1
2018-Jul-14 22:30S 32°06' E 115°40'0 0.2
2018-Jul-14 22:01S 32°06' E 115°40'1 1.7
2018-Jul-14 21:31S 32°07' E 115°41'3 6.4
2018-Jul-14 21:01S 32°08' E 115°45'2 3.5
2018-Jul-14 20:31S 32°07' E 115°43'2 4.0
2018-Jul-14 20:00S 32°06' E 115°41'0 0.9
2018-Jul-14 19:30S 32°06' E 115°40'0 0.6
2018-Jul-14 19:01S 32°06' E 115°40'1 1.1
2018-Jul-14 18:30S 32°06' E 115°41'0 0.8
2018-Jul-14 18:01S 32°06' E 115°41'0 0.2
2018-Jul-14 17:29S 32°06' E 115°41'1 2.8
2018-Jul-14 17:01S 32°07' E 115°42'2 5.0
2018-Jul-14 16:31S 32°08' E 115°45'3 5.7
2018-Jul-14 16:01S 32°06' E 115°42'1 2.7
2018-Jul-14 15:30S 32°05' E 115°41'0 0.6
2018-Jul-14 15:00S 32°05' E 115°41'0 0.3
2018-Jul-14 14:00S 32°06' E 115°41'3 6.4
2018-Jul-14 13:31S 32°07' E 115°44'1 1.2
2018-Jul-14 13:01S 32°07' E 115°43'3 5.7
2018-Jul-14 12:31S 32°05' E 115°41'1 2.4
2018-Jul-14 12:00S 32°05' E 115°40'0 0.6
2018-Jul-14 11:31S 32°05' E 115°40'0 0.2
2018-Jul-14 10:57S 32°05' E 115°40'1 2.7
2018-Jul-14 10:31S 32°05' E 115°41'3 5.5
2018-Jul-14 10:00S 32°07' E 115°44'1 1.6
2018-Jul-14 09:31S 32°07' E 115°44'3 6.3
2018-Jul-14 09:00S 32°06' E 115°41'0 0.7
2018-Jul-14 08:31S 32°06' E 115°40'0 0.4
2018-Jul-14 08:01S 32°06' E 115°40'0 0.4
2018-Jul-14 07:30S 32°06' E 115°40'2 4.2
2018-Jul-14 07:00S 32°07' E 115°43'2 4.0
2018-Jul-14 06:30S 32°08' E 115°45'3 5.8
2018-Jul-14 06:01S 32°06' E 115°42'1 1.6
2018-Jul-14 05:31S 32°06' E 115°41'0 0.9
2018-Jul-14 05:00S 32°06' E 115°40'0 0.7
2018-Jul-14 04:30S 32°06' E 115°41'0 0.3
2018-Jul-14 04:00S 32°06' E 115°41'0 0.2
2018-Jul-14 03:30S 32°06' E 115°41'0 0.7
2018-Jul-14 03:00S 32°06' E 115°41'0 1.0
2018-Jul-14 02:30S 32°06' E 115°42'3 6.3
2018-Jul-14 02:00S 32°08' E 115°45'2 3.2
2018-Jul-14 01:30S 32°07' E 115°43'3 4.7
2018-Jul-14 00:57S 32°05' E 115°41'0 0.3
2018-Jul-14 00:24S 32°05' E 115°41'0 0.7
2018-Jul-14 00:00S 32°05' E 115°41'2 4.5
2018-Jul-13 23:30S 32°07' E 115°43'2 3.9
2018-Jul-13 23:00S 32°08' E 115°45'3 6.0
2018-Jul-13 22:30S 32°06' E 115°42'3 5.1
2018-Jul-13 22:00S 32°05' E 115°39'0 0.6
2018-Jul-13 21:30S 32°05' E 115°40'0 0.1
2018-Jul-13 21:00S 32°05' E 115°40'0 0.4
2018-Jul-13 20:30S 32°05' E 115°40'3 6.0
2018-Jul-13 20:00S 32°06' E 115°43'2 4.2
2018-Jul-13 19:30S 32°08' E 115°45'3 6.1
2018-Jul-13 19:00S 32°06' E 115°41'1 1.7
2018-Jul-13 18:30S 32°07' E 115°40'0 0.3
2018-Jul-13 18:00S 32°06' E 115°40'0 0.0
2018-Jul-13 17:30S 32°06' E 115°40'1 1.2
2018-Jul-13 17:00S 32°07' E 115°41'3 6.9
2018-Jul-13 16:30S 32°08' E 115°45'2 3.3
2018-Jul-13 16:00S 32°07' E 115°43'2 4.5
2018-Jul-13 15:30S 32°06' E 115°40'0 0.6
2018-Jul-13 15:00S 32°06' E 115°41'0 0.1
2018-Jul-13 14:00S 32°06' E 115°41'3 5.2
2018-Jul-13 13:29S 32°07' E 115°44'0 0.6
2018-Jul-13 13:00S 32°07' E 115°44'3 5.7
2018-Jul-13 12:30S 32°06' E 115°41'1 1.2
2018-Jul-13 12:00S 32°05' E 115°41'0 0.6
2018-Jul-13 11:30S 32°05' E 115°41'0 0.5
2018-Jul-13 11:00S 32°05' E 115°41'0 0.1
2018-Jul-13 10:29S 32°05' E 115°41'0 0.5
2018-Jul-13 09:54S 32°05' E 115°41'2 4.2
2018-Jul-13 09:30S 32°06' E 115°42'3 5.9
2018-Jul-13 09:00S 32°08' E 115°45'2 3.8
2018-Jul-13 08:30S 32°07' E 115°43'3 5.9
2018-Jul-13 08:00S 32°05' E 115°40'1 1.1
2018-Jul-13 07:29S 32°05' E 115°40'0 0.4
2018-Jul-13 06:59S 32°05' E 115°40'0 0.2
2018-Jul-13 06:30S 32°05' E 115°40'0 0.2
2018-Jul-13 06:00S 32°05' E 115°40'3 5.3
2018-Jul-13 05:30S 32°06' E 115°42'3 5.1
2018-Jul-13 05:00S 32°08' E 115°45'1 1.9
2018-Jul-13 04:30S 32°07' E 115°44'3 6.2
2018-Jul-13 04:00S 32°06' E 115°40'0 0.7
2018-Jul-13 03:29S 32°06' E 115°40'0 0.8
2018-Jul-13 03:00S 32°06' E 115°40'0 0.3
2018-Jul-13 02:30S 32°06' E 115°40'0 0.3
2018-Jul-13 02:00S 32°07' E 115°40'2 3.4
2018-Jul-13 01:30S 32°07' E 115°42'2 4.5
2018-Jul-13 01:00S 32°08' E 115°45'1 1.0
2018-Jul-13 00:27S 32°07' E 115°44'0 0.0
2018-Jul-13 00:00S 32°07' E 115°44'0 0.0
2018-Jul-12 23:30S 32°07' E 115°44'0 0.0
2018-Jul-12 23:00S 32°07' E 115°44'0 0.0
2018-Jul-12 22:30S 32°07' E 115°44'0 0.0
2018-Jul-12 22:00S 32°07' E 115°44'0 0.0
2018-Jul-12 21:30S 32°07' E 115°44'0 0.0
2018-Jul-12 20:57S 32°07' E 115°44'0 0.0
2018-Jul-12 20:27S 32°07' E 115°44'0 0.0
2018-Jul-12 19:57S 32°07' E 115°44'0 0.0
2018-Jul-12 19:27S 32°07' E 115°44'0 0.0
2018-Jul-12 19:00S 32°07' E 115°44'0 0.0
2018-Jul-12 18:30S 32°07' E 115°44'0 0.0
2018-Jul-12 18:00S 32°07' E 115°44'0 0.0
2018-Jul-12 17:30S 32°07' E 115°44'0 0.0
2018-Jul-12 17:00S 32°07' E 115°44'0 0.0
2018-Jul-12 16:30S 32°07' E 115°44'0 0.0
2018-Jul-12 15:57S 32°07' E 115°44'0 0.0
2018-Jul-12 15:27S 32°07' E 115°44'0 0.0
2018-Jul-12 15:00S 32°07' E 115°44'0 0.0
2018-Jul-12 14:30S 32°07' E 115°44'0 0.1
2018-Jul-12 13:57S 32°07' E 115°44'0 0.0
2018-Jul-12 13:29S 32°07' E 115°44'0 0.1
2018-Jul-12 12:59S 32°07' E 115°44'0 0.0
2018-Jul-12 12:29S 32°07' E 115°44'0 0.0
2018-Jul-12 11:56S 32°07' E 115°44'0 0.0
2018-Jul-12 11:29S 32°07' E 115°44'0 0.0
2018-Jul-12 11:00S 32°07' E 115°44'0 0.1
2018-Jul-12 10:30S 32°07' E 115°44'0 0.1
2018-Jul-12 10:00S 32°07' E 115°44'0 0.0
2018-Jul-12 09:30S 32°07' E 115°44'0 0.0
2018-Jul-12 09:00S 32°07' E 115°44'0 0.0
2018-Jul-12 08:30S 32°07' E 115°44'0 0.0
2018-Jul-12 08:00S 32°07' E 115°44'2 3.5
2018-Jul-12 07:30S 32°06' E 115°42'1 2.6
2018-Jul-12 07:00S 32°06' E 115°41'1 1.0
2018-Jul-12 06:30S 32°06' E 115°40'0 0.5
2018-Jul-12 05:58S 32°06' E 115°41'1 1.1
2018-Jul-12 05:30S 32°06' E 115°41'3 6.8
2018-Jul-12 05:00S 32°08' E 115°45'1 2.7
2018-Jul-12 04:30S 32°07' E 115°43'3 6.1
2018-Jul-12 04:00S 32°05' E 115°41'0 0.4
2018-Jul-12 03:30S 32°05' E 115°41'0 0.3
2018-Jul-12 03:00S 32°05' E 115°41'1 2.5
2018-Jul-12 02:30S 32°06' E 115°42'3 6.7
2018-Jul-12 02:00S 32°08' E 115°45'2 3.9
2018-Jul-12 01:30S 32°07' E 115°43'3 5.8
2018-Jul-12 01:00S 32°05' E 115°40'1 1.1
2018-Jul-12 00:30S 32°05' E 115°40'0 0.4
2018-Jul-12 00:00S 32°05' E 115°40'0 0.2
2018-Jul-11 23:30S 32°05' E 115°40'2 4.9
2018-Jul-11 23:00S 32°06' E 115°42'3 5.7
2018-Jul-11 22:30S 32°08' E 115°45'3 5.6
2018-Jul-11 22:00S 32°07' E 115°42'2 2.8
2018-Jul-11 21:27S 32°06' E 115°40'0 1.0
2018-Jul-11 21:00S 32°06' E 115°40'0 0.6
2018-Jul-11 20:16S 32°06' E 115°40'0 0.8
2018-Jul-11 20:00S 32°06' E 115°40'1 2.8
2018-Jul-11 19:30S 32°07' E 115°42'3 5.8
2018-Jul-11 19:00S 32°08' E 115°45'3 5.7
2018-Jul-11 18:30S 32°06' E 115°42'1 2.0
2018-Jul-11 17:57S 32°06' E 115°41'0 0.4
2018-Jul-11 17:30S 32°06' E 115°41'  
Track history (hours):
 
Tides and Currents Weather Stations Pressure Air Temp Water Temp Dewpoint Dewpoint Depression Visibility Wind Speed Wind Dir Waves Ship Positions

Modi R

Last reported at 2018-Jul-21 17:00 UTC. Time now 2018-Jul-21 17:24 UTC.
Position S 32°06' E 115°40'.

Length 64 m; draft 3 m.

Type: Dredging. MMSI: 219963000.

Date/timePositionNaut miles runAvg speedWind from/ knotsBaromVisibWave heightAir tempDewpointWater temp
2018-Jul-21 17:00S 32°06' E 115°40'0 0.7
2018-Jul-21 16:30S 32°06' E 115°40'2 4.8
2018-Jul-21 16:00S 32°07' E 115°43'2 3.1
2018-Jul-21 15:30S 32°08' E 115°45'3 6.5
2018-Jul-21 15:00S 32°06' E 115°41'0 0.9
2018-Jul-21 14:30S 32°06' E 115°41'0 0.2
2018-Jul-21 13:30S 32°06' E 115°40'0 0.5
2018-Jul-21 13:00S 32°06' E 115°40'0 0.9
2018-Jul-21 12:30S 32°06' E 115°41'3 6.0
2018-Jul-21 12:00S 32°07' E 115°44'0 0.1
2018-Jul-21 11:30S 32°07' E 115°44'3 5.8
2018-Jul-21 10:59S 32°06' E 115°41'1 1.4
2018-Jul-21 10:30S 32°05' E 115°41'0 0.3
2018-Jul-21 10:00S 32°05' E 115°41'1 2.8
2018-Jul-21 09:30S 32°06' E 115°42'3 5.8
2018-Jul-21 09:00S 32°08' E 115°45'2 4.1
2018-Jul-21 08:30S 32°07' E 115°43'3 5.8
2018-Jul-21 07:57S 32°05' E 115°40'0 0.1
2018-Jul-21 07:30S 32°05' E 115°40'0 0.0
2018-Jul-21 07:00S 32°05' E 115°40'2 3.2
2018-Jul-21 06:30S 32°06' E 115°41'3 6.6
2018-Jul-21 06:00S 32°08' E 115°44'1 2.0
2018-Jul-21 05:30S 32°07' E 115°43'3 5.4
2018-Jul-21 05:00S 32°06' E 115°40'0 0.1
2018-Jul-21 04:30S 32°06' E 115°40'0 0.2
2018-Jul-21 04:00S 32°06' E 115°40'2 4.7
2018-Jul-21 03:30S 32°07' E 115°43'2 3.2
2018-Jul-21 03:00S 32°08' E 115°45'3 6.4
2018-Jul-21 02:30S 32°06' E 115°41'1 1.3
2018-Jul-21 02:00S 32°06' E 115°40'0 0.5
2018-Jul-21 01:30S 32°06' E 115°40'1 1.5
2018-Jul-21 01:00S 32°06' E 115°41'3 5.8
2018-Jul-21 00:30S 32°07' E 115°44'1 1.2
2018-Jul-21 00:00S 32°07' E 115°44'3 5.8
2018-Jul-20 23:30S 32°05' E 115°41'1 1.0
2018-Jul-20 22:58S 32°05' E 115°41'0 0.5
2018-Jul-20 22:30S 32°05' E 115°41'2 3.4
2018-Jul-20 22:00S 32°06' E 115°42'3 5.1
2018-Jul-20 21:30S 32°08' E 115°45'2 3.8
2018-Jul-20 21:00S 32°07' E 115°43'4 5.9
2018-Jul-20 20:25S 32°05' E 115°40'0 0.5
2018-Jul-20 20:00S 32°05' E 115°40'0 0.4
2018-Jul-20 19:30S 32°05' E 115°40'1 2.2
2018-Jul-20 19:01S 32°05' E 115°41'3 6.3
2018-Jul-20 18:30S 32°07' E 115°44'0 0.4
2018-Jul-20 18:00S 32°07' E 115°44'3 6.1
2018-Jul-20 17:30S 32°06' E 115°40'0 0.5
2018-Jul-20 17:00S 32°06' E 115°40'0 0.6
2018-Jul-20 16:30S 32°06' E 115°40'2 5.0
2018-Jul-20 16:00S 32°07' E 115°43'1 2.5
2018-Jul-20 15:30S 32°08' E 115°44'3 5.9
2018-Jul-20 15:00S 32°06' E 115°41'1 1.7
2018-Jul-20 14:30S 32°06' E 115°40'0 0.2
2018-Jul-20 14:00S 32°06' E 115°40'1 2.0
2018-Jul-20 13:28S 32°06' E 115°42'3 6.5
2018-Jul-20 13:00S 32°08' E 115°45'2 3.8
2018-Jul-20 12:30S 32°07' E 115°43'2 4.5
2018-Jul-20 12:00S 32°05' E 115°41'0 0.5
2018-Jul-20 11:30S 32°05' E 115°41'0 0.5
2018-Jul-20 11:00S 32°05' E 115°41'3 6.3
2018-Jul-20 10:30S 32°07' E 115°44'0 0.2
2018-Jul-20 10:00S 32°07' E 115°44'3 6.0
2018-Jul-20 09:30S 32°05' E 115°41'1 2.4
2018-Jul-20 09:00S 32°05' E 115°40'0 0.2
2018-Jul-20 08:30S 32°05' E 115°40'1 1.9
2018-Jul-20 08:00S 32°05' E 115°41'3 6.3
2018-Jul-20 07:30S 32°07' E 115°44'1 1.4
2018-Jul-20 07:00S 32°07' E 115°44'3 5.9
2018-Jul-20 06:26S 32°06' E 115°40'0 0.6
2018-Jul-20 06:00S 32°06' E 115°40'0 0.5
2018-Jul-20 05:30S 32°06' E 115°40'2 3.9
2018-Jul-20 05:00S 32°07' E 115°43'2 4.1
2018-Jul-20 04:30S 32°08' E 115°45'0 0.6
2018-Jul-20 03:58S 32°07' E 115°44'0 0.0
2018-Jul-20 03:28S 32°07' E 115°44'0 0.0
2018-Jul-20 02:55S 32°07' E 115°44'0 0.1
2018-Jul-20 02:28S 32°07' E 115°44'0 0.0
2018-Jul-20 01:58S 32°07' E 115°44'0 0.0
2018-Jul-20 01:25S 32°07' E 115°44'0 0.0
2018-Jul-20 00:58S 32°07' E 115°44'0 0.0
2018-Jul-20 00:28S 32°07' E 115°44'0 0.0
2018-Jul-20 00:00S 32°07' E 115°44'0 0.0
2018-Jul-19 23:30S 32°07' E 115°44'0 0.0
2018-Jul-19 22:57S 32°08' E 115°44'0 0.0
2018-Jul-19 22:24S 32°07' E 115°44'0 0.0
2018-Jul-19 22:00S 32°07' E 115°44'0 0.0
2018-Jul-19 21:27S 32°07' E 115°44'0 0.0
2018-Jul-19 21:00S 32°07' E 115°44'0 0.0
2018-Jul-19 20:27S 32°08' E 115°44'0 0.0
2018-Jul-19 20:00S 32°07' E 115°44'0 0.0
2018-Jul-19 19:30S 32°07' E 115°44'0 0.0
2018-Jul-19 19:00S 32°07' E 115°44'0 0.0
2018-Jul-19 18:30S 32°07' E 115°44'0 0.0
2018-Jul-19 17:57S 32°07' E 115°44'0 0.0
2018-Jul-19 17:30S 32°07' E 115°44'0 0.0
2018-Jul-19 15:12S 32°07' E 115°44'0 0.1
2018-Jul-19 15:00S 32°07' E 115°44'0 0.0
2018-Jul-19 14:00S 32°07' E 115°44'0 0.0
2018-Jul-19 13:30S 32°07' E 115°44'0 0.0
2018-Jul-19 13:00S 32°07' E 115°44'0 0.0
2018-Jul-19 12:30S 32°07' E 115°44'0 0.1
2018-Jul-19 12:00S 32°07' E 115°44'0 0.1
2018-Jul-19 11:27S 32°07' E 115°44'0 0.0
2018-Jul-19 11:00S 32°07' E 115°44'0 0.3
2018-Jul-19 10:30S 32°08' E 115°44'1 2.1
2018-Jul-19 10:00S 32°07' E 115°43'3 5.1
2018-Jul-19 09:30S 32°06' E 115°40'0 0.4
2018-Jul-19 08:59S 32°06' E 115°40'0 0.3
2018-Jul-19 08:30S 32°06' E 115°40'3 6.7
2018-Jul-19 08:00S 32°07' E 115°44'1 1.5
2018-Jul-19 07:30S 32°07' E 115°43'3 5.6
2018-Jul-19 07:00S 32°05' E 115°41'0 0.1
2018-Jul-19 06:30S 32°05' E 115°41'0 0.1
2018-Jul-19 06:00S 32°05' E 115°41'2 3.0
2018-Jul-19 05:30S 32°06' E 115°42'3 5.8
2018-Jul-19 05:00S 32°08' E 115°45'3 5.1
2018-Jul-19 04:30S 32°06' E 115°42'3 5.4
2018-Jul-19 03:59S 32°05' E 115°40'0 0.5
2018-Jul-19 03:29S 32°05' E 115°40'0 0.5
2018-Jul-19 02:59S 32°05' E 115°40'0 0.5
2018-Jul-19 02:30S 32°05' E 115°40'2 3.7
2018-Jul-19 02:00S 32°06' E 115°41'4 7.0
2018-Jul-19 01:30S 32°08' E 115°45'2 4.4
2018-Jul-19 01:00S 32°07' E 115°43'2 3.9
2018-Jul-19 00:30S 32°07' E 115°40'0 0.2
2018-Jul-19 00:00S 32°06' E 115°40'0 0.3
2018-Jul-18 23:30S 32°07' E 115°40'3 6.3
2018-Jul-18 23:00S 32°07' E 115°44'0 0.0
2018-Jul-18 22:30S 32°07' E 115°44'3 6.2
2018-Jul-18 22:00S 32°06' E 115°41'0 0.5
2018-Jul-18 21:30S 32°06' E 115°40'0 0.5
2018-Jul-18 21:00S 32°06' E 115°41'3 6.6
2018-Jul-18 20:30S 32°07' E 115°44'1 1.1
2018-Jul-18 20:00S 32°07' E 115°44'3 5.9
2018-Jul-18 19:30S 32°05' E 115°41'0 0.3
2018-Jul-18 19:00S 32°05' E 115°41'0 0.6
2018-Jul-18 18:30S 32°05' E 115°41'4 7.2
2018-Jul-18 18:00S 32°07' E 115°44'0 0.6
2018-Jul-18 17:30S 32°07' E 115°44'4 6.4
2018-Jul-18 16:57S 32°05' E 115°41'1 1.9
2018-Jul-18 16:30S 32°05' E 115°40'0 0.2
2018-Jul-18 15:59S 32°05' E 115°40'0 0.5
2018-Jul-18 15:30S 32°05' E 115°40'0 0.8
2018-Jul-18 14:59S 32°05' E 115°39'1 2.3
2018-Jul-18 14:30S 32°05' E 115°41'4 3.6
2018-Jul-18 13:30S 32°07' E 115°44'3 5.9
2018-Jul-18 13:00S 32°06' E 115°41'0 0.7
2018-Jul-18 12:30S 32°07' E 115°40'0 0.3
2018-Jul-18 11:59S 32°07' E 115°40'1 2.7
2018-Jul-18 11:30S 32°06' E 115°42'3 2.5
2018-Jul-18 10:18S 32°08' E 115°45'0 0.0
2018-Jul-18 09:57S 32°08' E 115°45'0 0.0
2018-Jul-18 09:21S 32°08' E 115°45'0 0.0
2018-Jul-18 08:57S 32°08' E 115°45'0 0.0
2018-Jul-18 08:27S 32°08' E 115°45'0 0.0
2018-Jul-18 08:00S 32°08' E 115°45'0 0.0
2018-Jul-18 07:26S 32°08' E 115°45'0 0.0
2018-Jul-18 06:56S 32°08' E 115°45'0 0.0
2018-Jul-18 06:29S 32°08' E 115°45'0 0.0
2018-Jul-18 05:59S 32°08' E 115°45'0 0.0
2018-Jul-18 05:29S 32°08' E 115°45'0 0.0
2018-Jul-18 04:56S 32°08' E 115°45'0 0.0
2018-Jul-18 04:29S 32°08' E 115°45'0 0.0
2018-Jul-18 03:56S 32°08' E 115°45'0 0.0
2018-Jul-18 03:28S 32°08' E 115°45'0 0.0
2018-Jul-18 02:55S 32°08' E 115°45'0 0.0
2018-Jul-18 01:31S 32°08' E 115°45'0 0.0
2018-Jul-18 01:25S 32°08' E 115°45'0 0.0
2018-Jul-18 00:55S 32°08' E 115°45'0 0.0
2018-Jul-18 00:22S 32°08' E 115°45'0 0.0
2018-Jul-18 00:00S 32°08' E 115°45'2 3.1
2018-Jul-17 23:31S 32°07' E 115°43'3 5.3
2018-Jul-17 23:00S 32°06' E 115°40'0 0.1
2018-Jul-17 22:30S 32°06' E 115°40'0 0.2
2018-Jul-17 22:01S 32°06' E 115°40'0 0.1
2018-Jul-17 21:31S 32°06' E 115°41'0 0.0
2018-Jul-17 21:00S 32°06' E 115°41'0 0.9
2018-Jul-17 20:31S 32°06' E 115°41'3 6.3
2018-Jul-17 20:00S 32°08' E 115°44'1 2.0
2018-Jul-17 19:30S 32°07' E 115°43'3 5.8
2018-Jul-17 19:01S 32°05' E 115°41'0 0.0
2018-Jul-17 18:29S 32°05' E 115°41'0 0.4
2018-Jul-17 18:01S 32°05' E 115°41'1 3.0
2018-Jul-17 17:31S 32°06' E 115°42'3 6.0
2018-Jul-17 17:00S 32°08' E 115°45'2 4.4
2018-Jul-17 16:31S 32°07' E 115°43'3 5.8
2018-Jul-17 15:57S 32°05' E 115°40'0 0.2
2018-Jul-17 15:29S 32°05' E 115°40'0 0.1
2018-Jul-17 15:01S 32°05' E 115°40'0 0.5
2018-Jul-17 14:30S 32°05' E 115°40'3 5.4
2018-Jul-17 14:01S 32°06' E 115°42'3 5.0
2018-Jul-17 13:30S 32°08' E 115°45'3 5.6
2018-Jul-17 13:00S 32°07' E 115°42'2 3.1
2018-Jul-17 12:31S 32°07' E 115°40'0 0.3
2018-Jul-17 12:00S 32°07' E 115°40'0 0.2
2018-Jul-17 11:31S 32°06' E 115°40'3 5.2
2018-Jul-17 11:01S 32°07' E 115°43'1 1.7
2018-Jul-17 10:30S 32°07' E 115°44'0 0.2
2018-Jul-17 10:01S 32°07' E 115°44'0 0.0
2018-Jul-17 09:31S 32°07' E 115°44'0 0.0
2018-Jul-17 09:00S 32°07' E 115°44'1 1.3
2018-Jul-17 08:30S 32°07' E 115°44'3 5.2
2018-Jul-17 08:00S 32°06' E 115°41'0 0.3
2018-Jul-17 07:30S 32°06' E 115°41'0 0.1
2018-Jul-17 07:00S 32°06' E 115°41'0 0.4
2018-Jul-17 06:30S 32°06' E 115°40'0 0.5
2018-Jul-17 05:59S 32°06' E 115°41'1 1.1
2018-Jul-17 05:30S 32°06' E 115°41'0 0.4
2018-Jul-17 05:01S 32°06' E 115°41'2 4.3
2018-Jul-17 04:30S 32°07' E 115°43'1 2.9
2018-Jul-17 04:01S 32°08' E 115°45'3 6.2
2018-Jul-17 03:31S 32°06' E 115°42'1 1.9
2018-Jul-17 02:58S 32°05' E 115°41'0 0.1
2018-Jul-17 02:30S 32°05' E 115°41'0 0.2
2018-Jul-17 02:00S 32°05' E 115°41'3 6.0
2018-Jul-17 01:31S 32°07' E 115°44'0 0.9
2018-Jul-17 01:01S 32°07' E 115°44'3 6.0
2018-Jul-17 00:31S 32°06' E 115°41'2 1.5
2018-Jul-16 23:29S 32°05' E 115°40'0 0.9
2018-Jul-16 23:00S 32°05' E 115°40'3 5.9
2018-Jul-16 22:30S 32°07' E 115°43'2 3.9
2018-Jul-16 22:00S 32°08' E 115°45'3 5.9
2018-Jul-16 21:30S 32°07' E 115°42'1 2.4
2018-Jul-16 21:00S 32°06' E 115°40'0 0.4
2018-Jul-16 20:30S 32°06' E 115°40'0 0.2
2018-Jul-16 20:00S 32°07' E 115°40'1 2.7
2018-Jul-16 19:31S 32°07' E 115°42'3 5.6
2018-Jul-16 19:00S 32°08' E 115°45'2 4.5
2018-Jul-16 18:30S 32°07' E 115°43'2 3.2
2018-Jul-16 18:00S 32°06' E 115°41'0 0.5
2018-Jul-16 17:30S 32°06' E 115°41'0 0.2
2018-Jul-16 16:58S 32°06' E 115°41'0 0.1
2018-Jul-16 16:30S 32°06' E 115°41'0 0.5
2018-Jul-16 16:00S 32°06' E 115°41'0 0.3
2018-Jul-16 15:30S 32°06' E 115°41'0 0.3
2018-Jul-16 14:59S 32°06' E 115°41'1 2.3
2018-Jul-16 14:30S 32°06' E 115°42'3 5.4
2018-Jul-16 14:01S 32°08' E 115°45'3 5.0
2018-Jul-16 13:30S 32°06' E 115°42'2 3.9
2018-Jul-16 13:01S 32°05' E 115°41'0 0.8
2018-Jul-16 12:29S 32°05' E 115°41'0 0.6
2018-Jul-16 12:00S 32°05' E 115°41'0 0.3
2018-Jul-16 11:30S 32°05' E 115°41'0 0.7
2018-Jul-16 11:00S 32°05' E 115°41'3 6.0
2018-Jul-16 10:31S 32°07' E 115°44'0 0.8
2018-Jul-16 10:01S 32°07' E 115°44'3 6.1
2018-Jul-16 09:30S 32°06' E 115°41'2 3.4
2018-Jul-16 09:01S 32°05' E 115°40'0 0.1
2018-Jul-16 08:22S 32°05' E 115°40'0 0.3
2018-Jul-16 08:00S 32°05' E 115°40'2 4.5
2018-Jul-16 07:31S 32°06' E 115°42'3 6.2
2018-Jul-16 07:01S 32°08' E 115°45'2 3.6
2018-Jul-16 06:31S 32°07' E 115°43'2 4.8
2018-Jul-16 06:01S 32°06' E 115°40'0 0.5
2018-Jul-16 05:31S 32°07' E 115°40'0 0.4
2018-Jul-16 05:00S 32°07' E 115°40'1 2.6
2018-Jul-16 04:31S 32°07' E 115°42'3 5.8
2018-Jul-16 04:00S 32°08' E 115°45'1 1.2
2018-Jul-16 03:31S 32°07' E 115°44'3 6.2
2018-Jul-16 03:00S 32°06' E 115°41'0 0.2
2018-Jul-16 02:30S 32°06' E 115°41'0 0.3
2018-Jul-16 02:01S 32°06' E 115°41'0 0.0
2018-Jul-16 01:28S 32°06' E 115°41'0 0.5
2018-Jul-16 01:00S 32°06' E 115°41'0 0.9
2018-Jul-16 00:30S 32°06' E 115°40'0 0.6
2018-Jul-16 00:00S 32°06' E 115°41'0 0.1
2018-Jul-15 23:31S 32°06' E 115°41'0 0.4
2018-Jul-15 23:01S 32°06' E 115°41'1 1.3
2018-Jul-15 22:31S 32°06' E 115°41'3 6.3
2018-Jul-15 22:00S 32°08' E 115°45'1 1.7
2018-Jul-15 21:31S 32°07' E 115°44'3 5.7
2018-Jul-15 21:00S 32°05' E 115°41'0 0.7
2018-Jul-15 20:26S 32°05' E 115°41'0 0.1
2018-Jul-15 20:00S 32°05' E 115°41'0 0.1
2018-Jul-15 19:28S 32°05' E 115°41'0 0.4
2018-Jul-15 19:00S 32°05' E 115°41'3 5.7
2018-Jul-15 18:31S 32°07' E 115°43'1 2.5
2018-Jul-15 18:01S 32°08' E 115°45'3 6.0
2018-Jul-15 17:31S 32°06' E 115°42'2 3.9
2018-Jul-15 17:00S 32°05' E 115°40'0 0.6
2018-Jul-15 16:30S 32°05' E 115°39'0 0.7
2018-Jul-15 16:00S 32°05' E 115°40'3 5.3
2018-Jul-15 15:31S 32°06' E 115°42'3 5.3
2018-Jul-15 15:00S 32°08' E 115°45'3 5.5
2018-Jul-15 14:31S 32°07' E 115°42'2 3.2
2018-Jul-15 14:01S 32°06' E 115°40'0 0.3
2018-Jul-15 13:30S 32°07' E 115°40'0 0.1
2018-Jul-15 13:01S 32°07' E 115°40'3 5.3
2018-Jul-15 12:30S 32°07' E 115°44'1 2.1
2018-Jul-15 12:00S 32°08' E 115°45'3 6.2
2018-Jul-15 11:30S 32°06' E 115°41'0 1.0
2018-Jul-15 11:01S 32°06' E 115°41'0 0.3
2018-Jul-15 10:30S 32°06' E 115°41'0 0.1
2018-Jul-15 09:58S 32°06' E 115°41'0 0.5
2018-Jul-15 09:31S 32°06' E 115°40'0 0.4
2018-Jul-15 09:01S 32°06' E 115°41'0 0.4
2018-Jul-15 08:30S 32°06' E 115°41'0 0.8
2018-Jul-15 08:00S 32°06' E 115°40'1 1.3
2018-Jul-15 07:31S 32°06' E 115°41'3 6.5
2018-Jul-15 07:01S 32°08' E 115°45'1 2.8
2018-Jul-15 06:30S 32°07' E 115°43'2 4.8
2018-Jul-15 06:00S 32°05' E 115°41'0 0.1
2018-Jul-15 05:21S 32°05' E 115°41'0 0.4
2018-Jul-15 04:56S 32°05' E 115°41'0 0.8
2018-Jul-15 04:29S 32°05' E 115°41'2 5.2
2018-Jul-15 04:01S 32°07' E 115°43'1 2.4
2018-Jul-15 03:30S 32°08' E 115°45'3 6.1
2018-Jul-15 03:01S 32°06' E 115°42'2 4.0
2018-Jul-15 02:29S 32°05' E 115°40'0 0.0
2018-Jul-15 01:58S 32°05' E 115°40'0 0.6
2018-Jul-15 01:30S 32°05' E 115°40'0 0.6
2018-Jul-15 01:00S 32°05' E 115°40'1 2.5
2018-Jul-15 00:31S 32°05' E 115°41'3 6.4
2018-Jul-15 00:00S 32°07' E 115°44'0 0.1
2018-Jul-14 23:30S 32°07' E 115°44'3 6.0
2018-Jul-14 23:00S 32°06' E 115°40'0 0.1
2018-Jul-14 22:30S 32°06' E 115°40'0 0.2
2018-Jul-14 22:01S 32°06' E 115°40'1 1.7
2018-Jul-14 21:31S 32°07' E 115°41'3 6.4
2018-Jul-14 21:01S 32°08' E 115°45'2 3.5
2018-Jul-14 20:31S 32°07' E 115°43'2 4.0
2018-Jul-14 20:00S 32°06' E 115°41'0 0.9
2018-Jul-14 19:30S 32°06' E 115°40'0 0.6
2018-Jul-14 19:01S 32°06' E 115°40'1 1.1
2018-Jul-14 18:30S 32°06' E 115°41'0 0.8
2018-Jul-14 18:01S 32°06' E 115°41'0 0.2
2018-Jul-14 17:29S 32°06' E 115°41'1 2.8
2018-Jul-14 17:01S 32°07' E 115°42'2 5.0
2018-Jul-14 16:31S 32°08' E 115°45'3 5.7
2018-Jul-14 16:01S 32°06' E 115°42'1 2.7
2018-Jul-14 15:30S 32°05' E 115°41'0 0.6
2018-Jul-14 15:00S 32°05' E 115°41'0 0.3
2018-Jul-14 14:00S 32°06' E 115°41'3 6.4
2018-Jul-14 13:31S 32°07' E 115°44'1 1.2
2018-Jul-14 13:01S 32°07' E 115°43'3 5.7
2018-Jul-14 12:31S 32°05' E 115°41'1 2.4
2018-Jul-14 12:00S 32°05' E 115°40'0 0.6
2018-Jul-14 11:31S 32°05' E 115°40'0 0.2
2018-Jul-14 10:57S 32°05' E 115°40'1 2.7
2018-Jul-14 10:31S 32°05' E 115°41'3 5.5
2018-Jul-14 10:00S 32°07' E 115°44'1 1.6
2018-Jul-14 09:31S 32°07' E 115°44'3 6.3
2018-Jul-14 09:00S 32°06' E 115°41'0 0.7
2018-Jul-14 08:31S 32°06' E 115°40'0 0.4
2018-Jul-14 08:01S 32°06' E 115°40'0 0.4
2018-Jul-14 07:30S 32°06' E 115°40'2 4.2
2018-Jul-14 07:00S 32°07' E 115°43'2 4.0
2018-Jul-14 06:30S 32°08' E 115°45'3 5.8
2018-Jul-14 06:01S 32°06' E 115°42'1 1.6
2018-Jul-14 05:31S 32°06' E 115°41'0 0.9
2018-Jul-14 05:00S 32°06' E 115°40'0 0.7
2018-Jul-14 04:30S 32°06' E 115°41'0 0.3
2018-Jul-14 04:00S 32°06' E 115°41'0 0.2
2018-Jul-14 03:30S 32°06' E 115°41'0 0.7
2018-Jul-14 03:00S 32°06' E 115°41'0 1.0
2018-Jul-14 02:30S 32°06' E 115°42'3 6.3
2018-Jul-14 02:00S 32°08' E 115°45'2 3.2
2018-Jul-14 01:30S 32°07' E 115°43'3 4.7
2018-Jul-14 00:57S 32°05' E 115°41'0 0.3
2018-Jul-14 00:24S 32°05' E 115°41'0 0.7
2018-Jul-14 00:00S 32°05' E 115°41'2 4.5
2018-Jul-13 23:30S 32°07' E 115°43'2 3.9
2018-Jul-13 23:00S 32°08' E 115°45'3 6.0
2018-Jul-13 22:30S 32°06' E 115°42'3 5.1
2018-Jul-13 22:00S 32°05' E 115°39'0 0.6
2018-Jul-13 21:30S 32°05' E 115°40'0 0.1
2018-Jul-13 21:00S 32°05' E 115°40'0 0.4
2018-Jul-13 20:30S 32°05' E 115°40'3 6.0
2018-Jul-13 20:00S 32°06' E 115°43'2 4.2
2018-Jul-13 19:30S 32°08' E 115°45'3 6.1
2018-Jul-13 19:00S 32°06' E 115°41'1 1.7
2018-Jul-13 18:30S 32°07' E 115°40'0 0.3
2018-Jul-13 18:00S 32°06' E 115°40'0 0.0
2018-Jul-13 17:30S 32°06' E 115°40'1 1.2
2018-Jul-13 17:00S 32°07' E 115°41'3 6.9
2018-Jul-13 16:30S 32°08' E 115°45'2 3.3
2018-Jul-13 16:00S 32°07' E 115°43'2 4.5
2018-Jul-13 15:30S 32°06' E 115°40'0 0.6
2018-Jul-13 15:00S 32°06' E 115°41'0 0.1
2018-Jul-13 14:00S 32°06' E 115°41'3 5.2
2018-Jul-13 13:29S 32°07' E 115°44'0 0.6
2018-Jul-13 13:00S 32°07' E 115°44'3 5.7
2018-Jul-13 12:30S 32°06' E 115°41'1 1.2
2018-Jul-13 12:00S 32°05' E 115°41'0 0.6
2018-Jul-13 11:30S 32°05' E 115°41'0 0.5
2018-Jul-13 11:00S 32°05' E 115°41'0 0.1
2018-Jul-13 10:29S 32°05' E 115°41'0 0.5
2018-Jul-13 09:54S 32°05' E 115°41'2 4.2
2018-Jul-13 09:30S 32°06' E 115°42'3 5.9
2018-Jul-13 09:00S 32°08' E 115°45'2 3.8
2018-Jul-13 08:30S 32°07' E 115°43'3 5.9
2018-Jul-13 08:00S 32°05' E 115°40'1 1.1
2018-Jul-13 07:29S 32°05' E 115°40'0 0.4
2018-Jul-13 06:59S 32°05' E 115°40'0 0.2
2018-Jul-13 06:30S 32°05' E 115°40'0 0.2
2018-Jul-13 06:00S 32°05' E 115°40'3 5.3
2018-Jul-13 05:30S 32°06' E 115°42'3 5.1
2018-Jul-13 05:00S 32°08' E 115°45'1 1.9
2018-Jul-13 04:30S 32°07' E 115°44'3 6.2
2018-Jul-13 04:00S 32°06' E 115°40'0 0.7
2018-Jul-13 03:29S 32°06' E 115°40'0 0.8
2018-Jul-13 03:00S 32°06' E 115°40'0 0.3
2018-Jul-13 02:30S 32°06' E 115°40'0 0.3
2018-Jul-13 02:00S 32°07' E 115°40'2 3.4
2018-Jul-13 01:30S 32°07' E 115°42'2 4.5
2018-Jul-13 01:00S 32°08' E 115°45'1 1.0
2018-Jul-13 00:27S 32°07' E 115°44'0 0.0
2018-Jul-13 00:00S 32°07' E 115°44'0 0.0
2018-Jul-12 23:30S 32°07' E 115°44'0 0.0
2018-Jul-12 23:00S 32°07' E 115°44'0 0.0
2018-Jul-12 22:30S 32°07' E 115°44'0 0.0
2018-Jul-12 22:00S 32°07' E 115°44'0 0.0
2018-Jul-12 21:30S 32°07' E 115°44'0 0.0
2018-Jul-12 20:57S 32°07' E 115°44'0 0.0
2018-Jul-12 20:27S 32°07' E 115°44'0 0.0
2018-Jul-12 19:57S 32°07' E 115°44'0 0.0
2018-Jul-12 19:27S 32°07' E 115°44'0 0.0
2018-Jul-12 19:00S 32°07' E 115°44'0 0.0
2018-Jul-12 18:30S 32°07' E 115°44'0 0.0
2018-Jul-12 18:00S 32°07' E 115°44'0 0.0
2018-Jul-12 17:30S 32°07' E 115°44'0 0.0
2018-Jul-12 17:00S 32°07' E 115°44'0 0.0
2018-Jul-12 16:30S 32°07' E 115°44'0 0.0
2018-Jul-12 15:57S 32°07' E 115°44'0 0.0
2018-Jul-12 15:27S 32°07' E 115°44'0 0.0
2018-Jul-12 15:00S 32°07' E 115°44'0 0.0
2018-Jul-12 14:30S 32°07' E 115°44'0 0.1
2018-Jul-12 13:57S 32°07' E 115°44'0 0.0
2018-Jul-12 13:29S 32°07' E 115°44'0 0.1
2018-Jul-12 12:59S 32°07' E 115°44'0 0.0
2018-Jul-12 12:29S 32°07' E 115°44'0 0.0
2018-Jul-12 11:56S 32°07' E 115°44'0 0.0
2018-Jul-12 11:29S 32°07' E 115°44'0 0.0
2018-Jul-12 11:00S 32°07' E 115°44'0 0.1
2018-Jul-12 10:30S 32°07' E 115°44'0 0.1
2018-Jul-12 10:00S 32°07' E 115°44'0 0.0
2018-Jul-12 09:30S 32°07' E 115°44'0 0.0
2018-Jul-12 09:00S 32°07' E 115°44'0 0.0
2018-Jul-12 08:30S 32°07' E 115°44'0 0.0
2018-Jul-12 08:00S 32°07' E 115°44'2 3.5
2018-Jul-12 07:30S 32°06' E 115°42'1 2.6
2018-Jul-12 07:00S 32°06' E 115°41'1 1.0
2018-Jul-12 06:30S 32°06' E 115°40'0 0.5
2018-Jul-12 05:58S 32°06' E 115°41'1 1.1
2018-Jul-12 05:30S 32°06' E 115°41'3 6.8
2018-Jul-12 05:00S 32°08' E 115°45'1 2.7
2018-Jul-12 04:30S 32°07' E 115°43'3 6.1
2018-Jul-12 04:00S 32°05' E 115°41'0 0.4
2018-Jul-12 03:30S 32°05' E 115°41'0 0.3
2018-Jul-12 03:00S 32°05' E 115°41'1 2.5
2018-Jul-12 02:30S 32°06' E 115°42'3 6.7
2018-Jul-12 02:00S 32°08' E 115°45'2 3.9
2018-Jul-12 01:30S 32°07' E 115°43'3 5.8
2018-Jul-12 01:00S 32°05' E 115°40'1 1.1
2018-Jul-12 00:30S 32°05' E 115°40'0 0.4
2018-Jul-12 00:00S 32°05' E 115°40'0 0.2
2018-Jul-11 23:30S 32°05' E 115°40'2 4.9
2018-Jul-11 23:00S 32°06' E 115°42'3 5.7
2018-Jul-11 22:30S 32°08' E 115°45'3 5.6
2018-Jul-11 22:00S 32°07' E 115°42'2 2.8
2018-Jul-11 21:27S 32°06' E 115°40'0 1.0
2018-Jul-11 21:00S 32°06' E 115°40'0 0.6
2018-Jul-11 20:16S 32°06' E 115°40'0 0.8
2018-Jul-11 20:00S 32°06' E 115°40'1 2.8
2018-Jul-11 19:30S 32°07' E 115°42'3 5.8
2018-Jul-11 19:00S 32°08' E 115°45'3 5.7
2018-Jul-11 18:30S 32°06' E 115°42'1 2.0
2018-Jul-11 17:57S 32°06' E 115°41'0 0.4
2018-Jul-11 17:30S 32°06' E 115°41'  

Dump ship's entire track history